Metar Aviation Weather Data EGNJ Humberside

8°C Temp
6°C Dewpoint
87% Humidity
Temperature
11 KM/H
7 MPH
6 KTS
80°
Due East

Wind Speed
Clear
Conditions
Pressure 1031 (hPa) - 30.44 (in)
Visibility 6.2 (mi) - 10 (km)

Current Conditions
EGNJ
Humberside
Metar :EGNJ 180220Z AUTO 08006KT 9999 NCD 08/06 Q1031
Sun 18th November 02:20 am

Humberside
  Metar Aviation API Data Provided by https://www.checkwx.com/ PHP scripts by weather34.com ©2018